createdAt,value
2022-11-29T00:01:35.702Z,20.84
2022-11-29T00:04:04.307Z,20.81
2022-11-29T00:06:33.918Z,20.78
2022-11-29T00:09:06.388Z,20.68
2022-11-29T00:11:37.334Z,20.73
2022-11-29T00:14:06.842Z,20.65
2022-11-29T00:16:35.205Z,20.69
2022-11-29T00:19:03.607Z,20.79
2022-11-29T00:21:31.785Z,20.65
2022-11-29T00:24:00.083Z,20.66
2022-11-29T00:26:28.357Z,20.60
2022-11-29T00:28:56.633Z,20.58
2022-11-29T00:31:30.457Z,20.53
2022-11-29T00:34:00.726Z,20.52
2022-11-29T00:36:29.865Z,20.51
2022-11-29T00:38:59.297Z,20.48
2022-11-29T00:41:27.650Z,20.44
2022-11-29T00:43:56.136Z,20.52
2022-11-29T00:46:24.892Z,20.44
2022-11-29T00:48:53.004Z,20.42
2022-11-29T00:51:22.104Z,20.43
2022-11-29T00:53:50.338Z,20.28
2022-11-29T00:56:18.562Z,20.28
2022-11-29T00:58:46.741Z,20.25
2022-11-29T01:01:15.164Z,20.20
2022-11-29T01:03:44.102Z,20.17
2022-11-29T01:06:15.470Z,20.19
2022-11-29T01:08:43.957Z,20.16
2022-11-29T01:11:15.687Z,20.16
2022-11-29T01:13:44.721Z,20.13
2022-11-29T01:16:14.553Z,20.16
2022-11-29T01:18:43.628Z,20.13
2022-11-29T01:21:18.154Z,20.10
2022-11-29T01:23:47.005Z,20.11
2022-11-29T01:26:19.329Z,20.09
2022-11-29T01:28:50.562Z,20.09
2022-11-29T01:31:22.243Z,20.08
2022-11-29T01:33:54.580Z,20.06
2022-11-29T01:36:23.662Z,20.15
2022-11-29T01:38:52.287Z,20.15
2022-11-29T01:41:26.743Z,20.08
2022-11-29T01:44:07.679Z,20.08
2022-11-29T01:46:39.337Z,20.09
2022-11-29T01:49:24.512Z,20.14
2022-11-29T01:51:58.202Z,20.14
2022-11-29T01:54:27.081Z,20.04
2022-11-29T01:56:55.180Z,20.02
2022-11-29T01:59:28.469Z,20.00
2022-11-29T02:02:25.245Z,19.98
2022-11-29T02:04:53.889Z,19.93
2022-11-29T02:07:22.201Z,19.92
2022-11-29T02:09:50.351Z,19.90
2022-11-29T02:12:50.831Z,19.83
2022-11-29T02:15:41.513Z,19.92
2022-11-29T02:18:21.092Z,19.94
2022-11-29T02:21:01.550Z,19.86
2022-11-29T02:23:39.041Z,19.89
2022-11-29T02:26:13.257Z,19.87
2022-11-29T02:29:03.541Z,19.86
2022-11-29T02:32:09.893Z,19.84
2022-11-29T02:34:58.048Z,19.81
2022-11-29T02:37:28.965Z,19.81
2022-11-29T02:40:01.132Z,19.80
2022-11-29T02:42:29.309Z,19.68
2022-11-29T02:45:09.053Z,19.71
2022-11-29T02:47:55.447Z,19.73
2022-11-29T02:50:50.126Z,19.71
2022-11-29T02:53:32.734Z,19.68
2022-11-29T02:56:23.019Z,19.72
2022-11-29T02:59:20.984Z,19.71
2022-11-29T03:02:05.150Z,19.66
2022-11-29T03:04:45.744Z,19.69
2022-11-29T03:07:20.465Z,19.68
2022-11-29T03:10:12.331Z,19.65
2022-11-29T03:12:47.721Z,19.64
2022-11-29T03:15:21.805Z,19.56
2022-11-29T03:18:02.649Z,19.55
2022-11-29T03:20:39.419Z,19.56
2022-11-29T03:23:19.481Z,19.56
2022-11-29T03:25:57.474Z,19.56
2022-11-29T03:28:28.211Z,19.52
2022-11-29T03:31:27.935Z,19.56
2022-11-29T03:33:56.496Z,19.53
2022-11-29T03:36:45.078Z,19.47
2022-11-29T03:39:28.672Z,19.48
2022-11-29T03:42:02.435Z,19.53
2022-11-29T03:44:47.039Z,19.52
2022-11-29T03:47:21.655Z,19.49
2022-11-29T03:49:53.724Z,19.48
2022-11-29T03:52:32.143Z,19.44
2022-11-29T03:55:09.419Z,19.42
2022-11-29T03:57:55.915Z,19.41
2022-11-29T04:00:24.825Z,19.39
2022-11-29T04:02:56.206Z,19.34
2022-11-29T04:05:40.614Z,19.36
2022-11-29T04:08:34.675Z,19.35
2022-11-29T04:11:40.760Z,19.33
2022-11-29T04:14:31.307Z,19.25
2022-11-29T04:17:38.573Z,19.24
2022-11-29T04:20:25.582Z,19.24
2022-11-29T04:23:21.698Z,19.23
2022-11-29T04:25:49.772Z,19.23
2022-11-29T04:28:45.073Z,19.20
2022-11-29T04:31:28.948Z,19.24
2022-11-29T04:34:15.608Z,19.26
2022-11-29T04:37:02.002Z,19.28
2022-11-29T04:39:45.529Z,19.23
2022-11-29T04:42:19.539Z,19.22
2022-11-29T04:45:12.380Z,19.20
2022-11-29T04:48:08.239Z,19.11
2022-11-29T04:51:05.781Z,19.14
2022-11-29T04:53:44.966Z,19.17
2022-11-29T04:56:54.797Z,19.10
2022-11-29T04:59:31.672Z,19.19
2022-11-29T05:02:10.800Z,19.27
2022-11-29T05:05:26.254Z,19.26
2022-11-29T05:08:09.986Z,19.25
2022-11-29T05:11:00.782Z,19.27
2022-11-29T05:14:06.725Z,19.30
2022-11-29T05:16:49.122Z,19.31
2022-11-29T05:19:24.382Z,19.21
2022-11-29T05:22:10.761Z,19.22
2022-11-29T05:24:55.921Z,19.32
2022-11-29T05:27:54.290Z,19.29
2022-11-29T05:30:24.895Z,19.27
2022-11-29T05:32:52.824Z,19.34
2022-11-29T05:35:51.058Z,19.36
2022-11-29T05:38:28.140Z,19.45
2022-11-29T05:41:11.635Z,19.41
2022-11-29T05:44:17.506Z,19.39
2022-11-29T05:46:59.544Z,19.31
2022-11-29T05:49:33.612Z,19.33
2022-11-29T05:52:30.340Z,19.36
2022-11-29T05:54:58.520Z,19.35
2022-11-29T05:57:43.897Z,19.34
2022-11-29T06:00:14.213Z,19.33
2022-11-29T06:03:03.308Z,19.34
2022-11-29T06:05:59.286Z,19.37
2022-11-29T06:08:46.086Z,19.35
2022-11-29T06:11:20.694Z,19.29
2022-11-29T06:14:00.773Z,19.25
2022-11-29T06:16:53.702Z,19.21
2022-11-29T06:19:47.261Z,19.14
2022-11-29T06:22:34.371Z,19.12
2022-11-29T06:25:36.524Z,19.10
2022-11-29T06:28:23.636Z,19.13
2022-11-29T06:30:55.291Z,19.15
2022-11-29T06:33:30.121Z,19.07
2022-11-29T06:36:23.371Z,19.05
2022-11-29T06:38:51.825Z,19.06
2022-11-29T06:41:23.017Z,19.02
2022-11-29T06:43:51.803Z,18.99
2022-11-29T06:47:05.308Z,19.00
2022-11-29T06:49:36.255Z,19.01
2022-11-29T06:52:15.789Z,18.99
2022-11-29T06:55:14.971Z,19.01
2022-11-29T06:57:43.253Z,19.03
2022-11-29T07:00:27.291Z,19.04
2022-11-29T07:03:21.462Z,19.03
2022-11-29T07:05:50.067Z,19.02
2022-11-29T07:08:21.622Z,19.00
2022-11-29T07:10:52.267Z,18.99
2022-11-29T07:13:21.340Z,19.00
2022-11-29T07:16:11.597Z,18.98
2022-11-29T07:19:01.803Z,19.01
2022-11-29T07:21:38.884Z,19.05
2022-11-29T07:24:34.999Z,19.05
2022-11-29T07:27:21.801Z,19.08
2022-11-29T07:30:19.399Z,19.12
2022-11-29T07:33:00.011Z,19.17
2022-11-29T07:35:43.236Z,19.54
2022-11-29T07:38:26.455Z,20.76
2022-11-29T07:41:13.052Z,22.10
2022-11-29T07:43:55.049Z,23.59
2022-11-29T07:46:23.596Z,24.60
2022-11-29T07:48:52.223Z,24.95
2022-11-29T07:51:20.514Z,25.29
2022-11-29T07:53:48.885Z,25.95
2022-11-29T07:56:17.066Z,26.74
2022-11-29T07:58:45.384Z,27.78
2022-11-29T08:01:13.661Z,28.87
2022-11-29T08:03:42.531Z,29.83
2022-11-29T08:06:10.701Z,30.41
2022-11-29T08:08:43.735Z,30.53
2022-11-29T08:11:13.194Z,30.76
2022-11-29T08:13:41.789Z,31.37
2022-11-29T08:16:16.623Z,32.06
2022-11-29T08:18:45.388Z,32.60
2022-11-29T08:21:13.584Z,33.31
2022-11-29T08:23:41.760Z,34.02
2022-11-29T08:26:10.451Z,34.72
2022-11-29T08:28:39.350Z,35.30
2022-11-29T08:31:10.435Z,35.93
2022-11-29T08:33:43.489Z,36.42
2022-11-29T08:36:15.674Z,36.90
2022-11-29T08:38:43.958Z,37.43
2022-11-29T08:41:14.771Z,37.85
2022-11-29T08:43:44.180Z,38.30
2022-11-29T08:46:17.971Z,38.87
2022-11-29T08:48:48.107Z,39.28
2022-11-29T08:51:16.182Z,39.70
2022-11-29T08:53:44.464Z,39.96
2022-11-29T08:59:05.589Z,40.66
2022-11-29T09:01:33.828Z,40.91
2022-11-29T09:04:02.161Z,41.26
2022-11-29T09:06:37.506Z,41.22
2022-11-29T09:09:06.489Z,41.56
2022-11-29T09:11:36.538Z,41.64
2022-11-29T09:14:07.650Z,41.96
2022-11-29T09:16:37.715Z,42.04
2022-11-29T09:19:06.675Z,41.90
2022-11-29T09:21:36.480Z,42.14
2022-11-29T09:24:06.093Z,42.23
2022-11-29T09:26:36.142Z,42.12
2022-11-29T09:29:06.850Z,42.06
2022-11-29T09:31:36.017Z,42.15
2022-11-29T09:34:04.433Z,42.10
2022-11-29T09:36:32.714Z,41.97
2022-11-29T09:39:02.429Z,41.61
2022-11-29T09:42:01.530Z,40.85
2022-11-29T09:44:38.695Z,40.26
2022-11-29T09:47:48.533Z,40.21
2022-11-29T09:50:23.660Z,40.19
2022-11-29T09:53:29.393Z,40.07
2022-11-29T09:56:19.941Z,40.36
2022-11-29T09:58:48.059Z,40.98
2022-11-29T10:01:27.583Z,40.99
2022-11-29T10:04:01.780Z,41.23
2022-11-29T10:06:36.881Z,41.41
2022-11-29T10:09:13.724Z,42.08
2022-11-29T10:12:03.197Z,42.14
2022-11-29T10:14:53.263Z,42.15
2022-11-29T10:17:32.190Z,42.42
2022-11-29T10:20:20.321Z,42.79
2022-11-29T10:22:59.761Z,42.90
2022-11-29T10:25:58.122Z,43.02
2022-11-29T10:28:32.217Z,43.28
2022-11-29T10:31:14.978Z,43.03
2022-11-29T10:33:44.456Z,43.39
2022-11-29T10:36:25.484Z,43.53
2022-11-29T10:38:59.944Z,43.87
2022-11-29T10:41:28.535Z,43.35
2022-11-29T10:43:58.682Z,43.21
2022-11-29T10:46:33.772Z,43.14
2022-11-29T10:49:10.592Z,43.03
2022-11-29T10:51:38.851Z,43.12
2022-11-29T10:54:39.718Z,43.37
2022-11-29T10:57:16.855Z,43.30
2022-11-29T11:00:03.766Z,42.30
2022-11-29T11:02:33.379Z,41.36
2022-11-29T11:05:01.859Z,40.48
2022-11-29T11:07:35.892Z,40.55
2022-11-29T11:10:18.175Z,40.53
2022-11-29T11:13:05.366Z,40.73
2022-11-29T11:15:33.696Z,40.61
2022-11-29T11:18:07.545Z,39.43
2022-11-29T11:20:41.806Z,38.93
2022-11-29T11:23:30.125Z,38.76
2022-11-29T11:26:04.430Z,38.71
2022-11-29T11:29:02.403Z,39.17
2022-11-29T11:31:36.515Z,39.44
2022-11-29T11:34:35.601Z,39.45
2022-11-29T11:37:16.261Z,39.46
2022-11-29T11:39:46.978Z,39.40
2022-11-29T11:42:38.569Z,39.20
2022-11-29T11:45:13.138Z,38.87
2022-11-29T11:47:48.889Z,38.09
2022-11-29T11:50:28.216Z,37.90
2022-11-29T11:52:59.074Z,37.67
2022-11-29T11:55:33.114Z,37.27
2022-11-29T11:58:13.280Z,36.94
2022-11-29T12:01:08.907Z,36.19
2022-11-29T12:03:48.531Z,35.41
2022-11-29T12:06:28.789Z,34.68
2022-11-29T12:09:09.070Z,34.07
2022-11-29T12:12:04.673Z,33.75
2022-11-29T12:14:45.286Z,33.07
2022-11-29T12:17:35.319Z,32.67
2022-11-29T12:20:12.467Z,32.26
2022-11-29T12:23:05.747Z,32.12
2022-11-29T12:25:46.166Z,31.77
2022-11-29T12:28:20.397Z,31.54
2022-11-29T12:30:55.381Z,31.58
2022-11-29T12:34:07.842Z,31.44
2022-11-29T12:36:44.823Z,31.09
2022-11-29T12:39:18.014Z,30.99
2022-11-29T12:42:04.445Z,30.99
2022-11-29T12:44:35.467Z,30.79
2022-11-29T12:47:35.039Z,30.57
2022-11-29T12:50:15.197Z,30.49
2022-11-29T12:53:14.385Z,30.43
2022-11-29T12:56:15.619Z,30.32
2022-11-29T12:59:11.840Z,30.72
2022-11-29T13:02:02.798Z,30.85
2022-11-29T13:04:33.899Z,31.04
2022-11-29T13:07:32.371Z,31.07
2022-11-29T13:10:25.592Z,31.07
2022-11-29T13:12:58.678Z,30.86
2022-11-29T13:15:59.666Z,30.88
2022-11-29T13:18:41.407Z,31.00
2022-11-29T13:21:24.211Z,31.25
2022-11-29T13:24:09.133Z,30.85
2022-11-29T13:26:40.512Z,30.48
2022-11-29T13:29:16.290Z,30.40
2022-11-29T13:31:46.951Z,29.94
2022-11-29T13:34:33.197Z,29.42
2022-11-29T13:37:26.151Z,29.00
2022-11-29T13:40:16.116Z,28.76
2022-11-29T13:42:57.292Z,28.92
2022-11-29T13:45:42.866Z,29.33
2022-11-29T13:48:29.466Z,29.36
2022-11-29T13:50:58.565Z,29.50
2022-11-29T13:53:48.546Z,29.36
2022-11-29T13:56:29.772Z,29.44
2022-11-29T13:58:58.816Z,29.20
2022-11-29T14:01:28.464Z,29.22
2022-11-29T14:04:05.314Z,29.27
2022-11-29T14:06:36.747Z,29.36
2022-11-29T14:09:20.917Z,29.45
2022-11-29T14:11:52.965Z,29.48
2022-11-29T14:14:42.021Z,29.36
2022-11-29T14:17:35.175Z,29.48
2022-11-29T14:20:23.201Z,29.63
2022-11-29T14:23:06.948Z,29.42
2022-11-29T14:25:52.709Z,29.28
2022-11-29T14:28:21.336Z,29.21
2022-11-29T14:30:54.287Z,28.85
2022-11-29T14:33:41.374Z,28.98
2022-11-29T14:36:15.610Z,28.71
2022-11-29T14:39:02.208Z,28.34
2022-11-29T14:41:49.315Z,28.30
2022-11-29T14:44:17.697Z,28.24
2022-11-29T14:46:48.108Z,28.05
2022-11-29T14:49:27.768Z,28.05
2022-11-29T14:52:09.992Z,27.87
2022-11-29T14:54:55.839Z,27.83
2022-11-29T14:57:53.804Z,27.72
2022-11-29T15:00:29.071Z,27.73
2022-11-29T15:03:19.196Z,27.58
2022-11-29T15:06:12.448Z,27.54
2022-11-29T15:08:49.565Z,27.37
2022-11-29T15:11:23.980Z,27.18
2022-11-29T15:14:02.694Z,27.11
2022-11-29T15:17:03.726Z,27.07
2022-11-29T15:20:07.459Z,26.77
2022-11-29T15:22:50.529Z,26.55
2022-11-29T15:25:30.347Z,26.56
2022-11-29T15:28:04.079Z,26.57
2022-11-29T15:30:32.564Z,26.47
2022-11-29T15:33:04.427Z,26.49
2022-11-29T15:35:35.264Z,26.36
2022-11-29T15:38:04.028Z,26.46
2022-11-29T15:40:32.341Z,26.47
2022-11-29T15:43:20.984Z,26.44
2022-11-29T15:45:54.327Z,26.35
2022-11-29T15:48:25.423Z,26.12
2022-11-29T15:50:56.670Z,26.12
2022-11-29T15:53:48.323Z,26.14
2022-11-29T15:56:22.911Z,26.15
2022-11-29T15:58:57.232Z,26.09
2022-11-29T16:01:25.574Z,26.06
2022-11-29T16:03:57.273Z,25.95
2022-11-29T16:06:40.823Z,25.93
2022-11-29T16:09:16.755Z,25.88
2022-11-29T16:11:48.001Z,25.75
2022-11-29T16:14:26.088Z,25.62
2022-11-29T16:16:57.976Z,25.44
2022-11-29T16:19:37.078Z,25.38
2022-11-29T16:22:21.953Z,25.39
2022-11-29T16:24:55.963Z,25.21
2022-11-29T16:27:24.656Z,25.14
2022-11-29T16:29:53.861Z,25.08
2022-11-29T16:32:32.886Z,25.02
2022-11-29T16:35:13.340Z,24.89
2022-11-29T16:37:44.745Z,24.78
2022-11-29T16:40:39.395Z,24.65
2022-11-29T16:43:20.905Z,24.71
2022-11-29T16:45:49.178Z,24.73
2022-11-29T16:48:23.763Z,24.74
2022-11-29T16:51:10.465Z,24.66
2022-11-29T16:53:43.556Z,24.51
2022-11-29T16:56:13.572Z,24.39
2022-11-29T16:59:24.893Z,24.26
2022-11-29T17:01:31.902Z,24.23
2022-11-29T17:04:00.684Z,24.20
2022-11-29T17:06:29.923Z,24.21
2022-11-29T17:08:59.585Z,24.21
2022-11-29T17:11:28.021Z,24.17
2022-11-29T17:13:56.409Z,24.16
2022-11-29T17:16:25.027Z,24.18
2022-11-29T17:18:53.168Z,24.09
2022-11-29T17:21:23.195Z,24.11
2022-11-29T17:23:52.903Z,24.11
2022-11-29T17:26:22.517Z,24.12
2022-11-29T17:28:52.739Z,24.06
2022-11-29T17:31:23.619Z,24.01
2022-11-29T17:33:52.091Z,24.02
2022-11-29T17:36:21.267Z,24.00
2022-11-29T17:38:49.546Z,23.99
2022-11-29T17:41:22.740Z,24.00
2022-11-29T17:43:52.336Z,24.04
2022-11-29T17:46:25.031Z,24.06
2022-11-29T17:48:53.926Z,24.03
2022-11-29T17:54:13.408Z,24.05
2022-11-29T17:56:41.695Z,24.03
2022-11-29T17:59:09.985Z,23.94
2022-11-29T18:01:38.288Z,23.91
2022-11-29T18:04:07.042Z,23.80
2022-11-29T18:06:40.142Z,23.77
2022-11-29T18:09:10.750Z,23.79
2022-11-29T18:11:47.377Z,23.78
2022-11-29T18:14:22.166Z,23.70
2022-11-29T18:16:51.318Z,23.61
2022-11-29T18:19:21.730Z,23.56
2022-11-29T18:21:50.703Z,23.53
2022-11-29T18:24:18.769Z,23.46
2022-11-29T18:26:47.153Z,23.39
2022-11-29T18:29:15.544Z,23.35
2022-11-29T18:31:45.762Z,23.29
2022-11-29T18:34:14.965Z,23.20
2022-11-29T18:36:48.372Z,23.10
2022-11-29T18:39:19.749Z,23.07
2022-11-29T18:41:49.949Z,23.06
2022-11-29T18:44:20.691Z,23.03
2022-11-29T18:46:49.192Z,22.98
2022-11-29T18:49:18.172Z,22.95
2022-11-29T18:51:47.129Z,22.90
2022-11-29T18:54:17.806Z,22.86
2022-11-29T18:56:46.379Z,22.77
2022-11-29T18:59:17.833Z,22.74
2022-11-29T19:01:48.225Z,22.69
2022-11-29T19:04:19.516Z,22.63
2022-11-29T19:06:47.859Z,22.69
2022-11-29T19:09:19.481Z,22.69
2022-11-29T19:11:47.834Z,22.76
2022-11-29T19:14:15.907Z,22.70
2022-11-29T19:16:46.195Z,22.63
2022-11-29T19:19:14.412Z,22.52
2022-11-29T19:21:42.592Z,22.45
2022-11-29T19:24:15.956Z,22.42
2022-11-29T19:26:46.839Z,22.39
2022-11-29T19:29:16.340Z,22.48
2022-11-29T19:31:44.621Z,22.47
2022-11-29T19:34:12.789Z,22.42
2022-11-29T19:36:42.096Z,22.37
2022-11-29T19:39:10.681Z,22.31
2022-11-29T19:41:39.387Z,22.36
2022-11-29T19:44:09.112Z,22.35
2022-11-29T19:46:40.701Z,22.31
2022-11-29T19:49:09.776Z,22.22
2022-11-29T19:51:38.430Z,22.20
2022-11-29T19:54:08.742Z,22.17
2022-11-29T19:56:37.841Z,22.23
2022-11-29T19:59:07.194Z,22.17
2022-11-29T20:01:40.657Z,22.07
2022-11-29T20:04:12.008Z,21.96
2022-11-29T20:06:40.807Z,22.00
2022-11-29T20:09:09.696Z,22.13
2022-11-29T20:11:37.886Z,22.14
2022-11-29T20:14:07.590Z,22.02
2022-11-29T20:16:36.870Z,21.96
2022-11-29T20:19:10.528Z,21.85
2022-11-29T20:21:42.764Z,21.81
2022-11-29T20:24:12.137Z,21.85
2022-11-29T20:26:42.593Z,21.86
2022-11-29T20:29:12.264Z,21.88
2022-11-29T20:31:47.773Z,21.95
2022-11-29T20:34:19.424Z,21.91
2022-11-29T20:37:12.052Z,21.92
2022-11-29T20:39:53.687Z,21.85
2022-11-29T20:42:33.992Z,21.75
2022-11-29T20:45:05.891Z,21.76
2022-11-29T20:47:55.054Z,21.68
2022-11-29T20:50:28.526Z,21.59
2022-11-29T20:53:20.228Z,21.50
2022-11-29T20:55:49.739Z,21.54
2022-11-29T20:58:17.915Z,21.45
2022-11-29T21:00:46.809Z,21.39
2022-11-29T21:03:16.462Z,21.27
2022-11-29T21:05:44.657Z,21.32
2022-11-29T21:08:13.978Z,21.35
2022-11-29T21:10:42.488Z,21.35
2022-11-29T21:13:12.814Z,21.33
2022-11-29T21:15:41.816Z,21.28
2022-11-29T21:18:30.178Z,21.21
2022-11-29T21:21:13.474Z,21.23
2022-11-29T21:23:52.301Z,21.30
2022-11-29T21:26:30.168Z,21.24
2022-11-29T21:29:04.845Z,21.23
2022-11-29T21:31:33.356Z,21.25
2022-11-29T21:34:02.304Z,21.14
2022-11-29T21:36:30.489Z,21.14
2022-11-29T21:39:03.633Z,21.14
2022-11-29T21:41:34.027Z,21.05
2022-11-29T21:44:07.215Z,20.98
2022-11-29T21:46:36.820Z,20.81
2022-11-29T21:49:05.292Z,20.66
2022-11-29T21:51:33.468Z,20.75
2022-11-29T21:54:02.269Z,20.86
2022-11-29T21:56:30.440Z,20.94
2022-11-29T21:58:58.618Z,20.96
2022-11-29T22:01:27.564Z,21.03
2022-11-29T22:03:55.996Z,21.00
2022-11-29T22:06:24.295Z,20.94
2022-11-29T22:08:53.075Z,20.99
2022-11-29T22:11:23.512Z,20.94
2022-11-29T22:13:53.625Z,20.88
2022-11-29T22:16:21.592Z,20.78
2022-11-29T22:18:50.704Z,20.68
2022-11-29T22:21:19.283Z,20.70
2022-11-29T22:23:47.468Z,20.68
2022-11-29T22:26:15.641Z,20.65
2022-11-29T22:28:43.818Z,20.63
2022-11-29T22:31:12.893Z,20.55
2022-11-29T22:33:40.995Z,20.52
2022-11-29T22:36:12.525Z,20.49
2022-11-29T22:38:40.625Z,20.51
2022-11-29T22:41:11.484Z,20.54
2022-11-29T22:43:41.092Z,20.55
2022-11-29T22:46:12.026Z,20.52
2022-11-29T22:48:41.953Z,20.55
2022-11-29T22:51:15.965Z,20.50
2022-11-29T22:53:52.214Z,20.56
2022-11-29T22:56:21.203Z,20.74
2022-11-29T22:58:49.899Z,20.77
2022-11-29T23:01:24.158Z,20.71
2022-11-29T23:03:54.907Z,20.73
2022-11-29T23:06:22.924Z,20.79
2022-11-29T23:08:53.457Z,20.82
2022-11-29T23:11:27.787Z,20.83
2022-11-29T23:13:56.639Z,20.84
2022-11-29T23:16:27.825Z,20.84
2022-11-29T23:18:58.663Z,20.81
2022-11-29T23:21:32.678Z,20.83
2022-11-29T23:24:01.570Z,20.80
2022-11-29T23:26:48.262Z,20.76
2022-11-29T23:29:18.982Z,20.72
2022-11-29T23:31:47.776Z,20.73
2022-11-29T23:34:16.377Z,20.68
2022-11-29T23:36:49.642Z,20.66
2022-11-29T23:39:21.232Z,20.67
2022-11-29T23:41:49.412Z,20.64
2022-11-29T23:44:17.583Z,20.59
2022-11-29T23:46:45.681Z,20.61
2022-11-29T23:49:14.248Z,20.57
2022-11-29T23:51:42.427Z,20.58
2022-11-29T23:54:10.604Z,20.62
2022-11-29T23:56:39.193Z,20.62
2022-11-29T23:59:07.780Z,20.65
